sensor_id;sensor_type;location;lat;lon;timestamp;P1;durP1;ratioP1;P2;durP2;ratioP2
6757;SDS011;3416;53.074;8.822;2023-11-21T00:00:50;37.22;;;19.75;;
6757;SDS011;3416;53.074;8.822;2023-11-21T00:03:18;40.08;;;20.27;;
6757;SDS011;3416;53.074;8.822;2023-11-21T00:05:45;46.90;;;19.48;;
6757;SDS011;3416;53.074;8.822;2023-11-21T00:08:13;43.58;;;21.10;;
6757;SDS011;3416;53.074;8.822;2023-11-21T00:10:40;34.40;;;19.52;;
6757;SDS011;3416;53.074;8.822;2023-11-21T00:13:07;42.53;;;23.23;;
6757;SDS011;3416;53.074;8.822;2023-11-21T00:15:33;46.88;;;23.20;;
6757;SDS011;3416;53.074;8.822;2023-11-21T00:18:00;48.75;;;22.38;;
6757;SDS011;3416;53.074;8.822;2023-11-21T00:20:29;29.10;;;17.80;;
6757;SDS011;3416;53.074;8.822;2023-11-21T00:22:55;49.63;;;23.58;;
6757;SDS011;3416;53.074;8.822;2023-11-21T00:25:22;55.30;;;20.75;;
6757;SDS011;3416;53.074;8.822;2023-11-21T00:27:50;43.53;;;23.00;;
6757;SDS011;3416;53.074;8.822;2023-11-21T00:30:17;35.17;;;19.25;;
6757;SDS011;3416;53.074;8.822;2023-11-21T00:32:45;48.13;;;22.15;;
6757;SDS011;3416;53.074;8.822;2023-11-21T00:35:12;42.58;;;19.58;;
6757;SDS011;3416;53.074;8.822;2023-11-21T00:37:40;44.50;;;21.38;;
6757;SDS011;3416;53.074;8.822;2023-11-21T00:40:08;44.65;;;22.33;;
6757;SDS011;3416;53.074;8.822;2023-11-21T00:42:35;34.45;;;18.35;;
6757;SDS011;3416;53.074;8.822;2023-11-21T00:45:02;40.35;;;21.27;;
6757;SDS011;3416;53.074;8.822;2023-11-21T00:47:31;42.45;;;17.80;;
6757;SDS011;3416;53.074;8.822;2023-11-21T00:49:58;44.00;;;20.23;;
6757;SDS011;3416;53.074;8.822;2023-11-21T00:52:25;36.67;;;18.67;;
6757;SDS011;3416;53.074;8.822;2023-11-21T00:54:53;29.92;;;16.80;;
6757;SDS011;3416;53.074;8.822;2023-11-21T00:57:20;32.25;;;18.17;;
6757;SDS011;3416;53.074;8.822;2023-11-21T00:59:47;48.25;;;21.25;;
6757;SDS011;3416;53.074;8.822;2023-11-21T01:02:14;38.38;;;18.63;;
6757;SDS011;3416;53.074;8.822;2023-11-21T01:04:41;36.97;;;20.48;;
6757;SDS011;3416;53.074;8.822;2023-11-21T01:07:10;40.10;;;18.33;;
6757;SDS011;3416;53.074;8.822;2023-11-21T01:09:36;31.13;;;19.45;;
6757;SDS011;3416;53.074;8.822;2023-11-21T01:12:06;51.75;;;19.67;;
6757;SDS011;3416;53.074;8.822;2023-11-21T01:14:33;46.13;;;21.75;;
6757;SDS011;3416;53.074;8.822;2023-11-21T01:17:01;33.75;;;18.50;;
6757;SDS011;3416;53.074;8.822;2023-11-21T01:19:29;40.60;;;22.50;;
6757;SDS011;3416;53.074;8.822;2023-11-21T01:21:56;39.83;;;23.42;;
6757;SDS011;3416;53.074;8.822;2023-11-21T01:24:23;36.92;;;22.05;;
6757;SDS011;3416;53.074;8.822;2023-11-21T01:26:50;42.75;;;22.00;;
6757;SDS011;3416;53.074;8.822;2023-11-21T01:29:18;37.33;;;21.02;;
6757;SDS011;3416;53.074;8.822;2023-11-21T01:31:45;50.95;;;26.30;;
6757;SDS011;3416;53.074;8.822;2023-11-21T01:34:12;38.78;;;23.35;;
6757;SDS011;3416;53.074;8.822;2023-11-21T01:36:39;33.70;;;21.38;;
6757;SDS011;3416;53.074;8.822;2023-11-21T01:39:06;38.30;;;23.67;;
6757;SDS011;3416;53.074;8.822;2023-11-21T01:41:35;39.30;;;22.85;;
6757;SDS011;3416;53.074;8.822;2023-11-21T01:44:08;45.78;;;26.17;;
6757;SDS011;3416;53.074;8.822;2023-11-21T01:46:37;54.38;;;26.60;;
6757;SDS011;3416;53.074;8.822;2023-11-21T01:49:05;52.22;;;24.88;;
6757;SDS011;3416;53.074;8.822;2023-11-21T01:51:35;43.80;;;25.55;;
6757;SDS011;3416;53.074;8.822;2023-11-21T01:54:03;40.42;;;23.55;;
6757;SDS011;3416;53.074;8.822;2023-11-21T01:56:31;35.47;;;22.58;;
6757;SDS011;3416;53.074;8.822;2023-11-21T01:58:59;43.00;;;22.80;;
6757;SDS011;3416;53.074;8.822;2023-11-21T02:01:25;29.05;;;17.77;;
6757;SDS011;3416;53.074;8.822;2023-11-21T02:03:54;29.40;;;18.67;;
6757;SDS011;3416;53.074;8.822;2023-11-21T02:06:21;33.17;;;17.70;;
6757;SDS011;3416;53.074;8.822;2023-11-21T02:08:49;35.17;;;18.15;;
6757;SDS011;3416;53.074;8.822;2023-11-21T02:11:16;29.17;;;19.17;;
6757;SDS011;3416;53.074;8.822;2023-11-21T02:13:44;38.40;;;20.65;;
6757;SDS011;3416;53.074;8.822;2023-11-21T02:16:12;36.70;;;19.88;;
6757;SDS011;3416;53.074;8.822;2023-11-21T02:18:40;24.98;;;17.02;;
6757;SDS011;3416;53.074;8.822;2023-11-21T02:21:09;33.78;;;18.60;;
6757;SDS011;3416;53.074;8.822;2023-11-21T02:23:37;29.67;;;20.17;;
6757;SDS011;3416;53.074;8.822;2023-11-21T02:26:07;30.13;;;17.85;;
6757;SDS011;3416;53.074;8.822;2023-11-21T02:28:34;36.80;;;20.27;;
6757;SDS011;3416;53.074;8.822;2023-11-21T02:31:01;33.88;;;19.48;;
6757;SDS011;3416;53.074;8.822;2023-11-21T02:33:29;33.58;;;19.27;;
6757;SDS011;3416;53.074;8.822;2023-11-21T02:35:58;28.35;;;19.15;;
6757;SDS011;3416;53.074;8.822;2023-11-21T02:38:25;35.70;;;21.55;;
6757;SDS011;3416;53.074;8.822;2023-11-21T02:40:54;25.13;;;16.80;;
6757;SDS011;3416;53.074;8.822;2023-11-21T02:43:26;23.67;;;17.55;;
6757;SDS011;3416;53.074;8.822;2023-11-21T02:45:52;28.17;;;17.92;;
6757;SDS011;3416;53.074;8.822;2023-11-21T02:48:19;19.92;;;15.90;;
6757;SDS011;3416;53.074;8.822;2023-11-21T02:50:49;22.17;;;16.63;;
6757;SDS011;3416;53.074;8.822;2023-11-21T02:53:15;35.20;;;16.95;;
6757;SDS011;3416;53.074;8.822;2023-11-21T02:55:45;27.27;;;17.02;;
6757;SDS011;3416;53.074;8.822;2023-11-21T02:58:13;18.55;;;12.82;;
6757;SDS011;3416;53.074;8.822;2023-11-21T03:00:40;27.48;;;16.30;;
6757;SDS011;3416;53.074;8.822;2023-11-21T03:03:07;19.83;;;13.05;;
6757;SDS011;3416;53.074;8.822;2023-11-21T03:05:34;24.23;;;15.02;;
6757;SDS011;3416;53.074;8.822;2023-11-21T03:08:02;21.98;;;14.88;;
6757;SDS011;3416;53.074;8.822;2023-11-21T03:10:30;22.98;;;17.08;;
6757;SDS011;3416;53.074;8.822;2023-11-21T03:12:57;27.77;;;18.77;;
6757;SDS011;3416;53.074;8.822;2023-11-21T03:15:25;27.48;;;16.88;;
6757;SDS011;3416;53.074;8.822;2023-11-21T03:17:52;25.48;;;15.40;;
6757;SDS011;3416;53.074;8.822;2023-11-21T03:20:19;28.02;;;16.23;;
6757;SDS011;3416;53.074;8.822;2023-11-21T03:22:46;26.70;;;17.17;;
6757;SDS011;3416;53.074;8.822;2023-11-21T03:25:13;35.65;;;19.17;;
6757;SDS011;3416;53.074;8.822;2023-11-21T03:27:40;33.97;;;21.00;;
6757;SDS011;3416;53.074;8.822;2023-11-21T03:30:09;31.65;;;18.55;;
6757;SDS011;3416;53.074;8.822;2023-11-21T03:32:38;38.90;;;21.05;;
6757;SDS011;3416;53.074;8.822;2023-11-21T03:35:05;34.95;;;19.73;;
6757;SDS011;3416;53.074;8.822;2023-11-21T03:37:33;40.20;;;20.73;;
6757;SDS011;3416;53.074;8.822;2023-11-21T03:40:00;38.92;;;22.25;;
6757;SDS011;3416;53.074;8.822;2023-11-21T03:42:29;26.98;;;18.50;;
6757;SDS011;3416;53.074;8.822;2023-11-21T03:44:56;48.92;;;24.63;;
6757;SDS011;3416;53.074;8.822;2023-11-21T03:47:21;42.13;;;23.00;;
6757;SDS011;3416;53.074;8.822;2023-11-21T03:49:51;42.85;;;24.70;;
6757;SDS011;3416;53.074;8.822;2023-11-21T03:52:18;40.05;;;23.35;;
6757;SDS011;3416;53.074;8.822;2023-11-21T03:54:45;55.45;;;28.95;;
6757;SDS011;3416;53.074;8.822;2023-11-21T03:57:12;47.00;;;26.25;;
6757;SDS011;3416;53.074;8.822;2023-11-21T03:59:39;49.28;;;26.50;;
6757;SDS011;3416;53.074;8.822;2023-11-21T04:02:07;40.10;;;23.02;;
6757;SDS011;3416;53.074;8.822;2023-11-21T04:04:36;55.65;;;28.08;;
6757;SDS011;3416;53.074;8.822;2023-11-21T04:07:05;46.95;;;26.30;;
6757;SDS011;3416;53.074;8.822;2023-11-21T04:09:32;48.85;;;26.65;;
6757;SDS011;3416;53.074;8.822;2023-11-21T04:12:01;51.75;;;28.52;;
6757;SDS011;3416;53.074;8.822;2023-11-21T04:14:28;38.78;;;26.50;;
6757;SDS011;3416;53.074;8.822;2023-11-21T04:16:55;40.00;;;25.52;;
6757;SDS011;3416;53.074;8.822;2023-11-21T04:19:22;44.10;;;27.50;;
6757;SDS011;3416;53.074;8.822;2023-11-21T04:21:49;40.65;;;28.63;;
6757;SDS011;3416;53.074;8.822;2023-11-21T04:24:17;44.78;;;29.67;;
6757;SDS011;3416;53.074;8.822;2023-11-21T04:26:44;45.05;;;29.75;;
6757;SDS011;3416;53.074;8.822;2023-11-21T04:29:11;44.22;;;28.08;;
6757;SDS011;3416;53.074;8.822;2023-11-21T04:31:38;40.80;;;29.50;;
6757;SDS011;3416;53.074;8.822;2023-11-21T04:34:06;29.95;;;22.77;;
6757;SDS011;3416;53.074;8.822;2023-11-21T04:36:33;43.05;;;29.17;;
6757;SDS011;3416;53.074;8.822;2023-11-21T04:39:01;35.95;;;23.48;;
6757;SDS011;3416;53.074;8.822;2023-11-21T04:41:29;32.78;;;22.80;;
6757;SDS011;3416;53.074;8.822;2023-11-21T04:43:56;20.20;;;16.15;;
6757;SDS011;3416;53.074;8.822;2023-11-21T04:46:23;20.17;;;15.68;;
6757;SDS011;3416;53.074;8.822;2023-11-21T04:48:50;19.95;;;14.60;;
6757;SDS011;3416;53.074;8.822;2023-11-21T04:51:17;19.75;;;14.50;;
6757;SDS011;3416;53.074;8.822;2023-11-21T04:53:44;14.93;;;11.20;;
6757;SDS011;3416;53.074;8.822;2023-11-21T04:56:11;12.85;;;11.02;;
6757;SDS011;3416;53.074;8.822;2023-11-21T04:58:40;14.45;;;11.40;;
6757;SDS011;3416;53.074;8.822;2023-11-21T05:01:07;16.23;;;12.60;;
6757;SDS011;3416;53.074;8.822;2023-11-21T05:03:34;14.55;;;12.18;;
6757;SDS011;3416;53.074;8.822;2023-11-21T05:06:03;16.08;;;12.23;;
6757;SDS011;3416;53.074;8.822;2023-11-21T05:08:31;17.40;;;11.73;;
6757;SDS011;3416;53.074;8.822;2023-11-21T05:10:58;15.50;;;11.82;;
6757;SDS011;3416;53.074;8.822;2023-11-21T05:13:26;17.15;;;13.43;;
6757;SDS011;3416;53.074;8.822;2023-11-21T05:15:54;16.65;;;12.07;;
6757;SDS011;3416;53.074;8.822;2023-11-21T05:18:22;14.00;;;11.05;;
6757;SDS011;3416;53.074;8.822;2023-11-21T05:20:52;13.30;;;10.65;;
6757;SDS011;3416;53.074;8.822;2023-11-21T05:23:19;15.32;;;9.90;;
6757;SDS011;3416;53.074;8.822;2023-11-21T05:25:46;13.13;;;11.02;;
6757;SDS011;3416;53.074;8.822;2023-11-21T05:28:12;12.88;;;11.20;;
6757;SDS011;3416;53.074;8.822;2023-11-21T05:30:39;11.20;;;9.82;;
6757;SDS011;3416;53.074;8.822;2023-11-21T05:33:08;15.18;;;11.45;;
6757;SDS011;3416;53.074;8.822;2023-11-21T05:35:35;11.68;;;10.20;;
6757;SDS011;3416;53.074;8.822;2023-11-21T05:38:02;12.27;;;9.23;;
6757;SDS011;3416;53.074;8.822;2023-11-21T05:40:30;11.80;;;9.70;;
6757;SDS011;3416;53.074;8.822;2023-11-21T05:42:58;12.70;;;9.55;;
6757;SDS011;3416;53.074;8.822;2023-11-21T05:45:25;10.30;;;9.20;;
6757;SDS011;3416;53.074;8.822;2023-11-21T05:47:54;10.30;;;8.30;;
6757;SDS011;3416;53.074;8.822;2023-11-21T05:50:22;12.00;;;9.60;;
6757;SDS011;3416;53.074;8.822;2023-11-21T05:52:49;12.80;;;9.23;;
6757;SDS011;3416;53.074;8.822;2023-11-21T05:55:16;12.48;;;8.10;;
6757;SDS011;3416;53.074;8.822;2023-11-21T05:57:46;13.85;;;10.40;;
6757;SDS011;3416;53.074;8.822;2023-11-21T06:00:13;15.23;;;10.15;;
6757;SDS011;3416;53.074;8.822;2023-11-21T06:02:45;16.05;;;9.15;;
6757;SDS011;3416;53.074;8.822;2023-11-21T06:05:15;11.55;;;7.90;;
6757;SDS011;3416;53.074;8.822;2023-11-21T06:07:44;9.85;;;8.15;;
6757;SDS011;3416;53.074;8.822;2023-11-21T06:10:11;12.18;;;8.93;;
6757;SDS011;3416;53.074;8.822;2023-11-21T06:12:39;11.30;;;9.20;;
6757;SDS011;3416;53.074;8.822;2023-11-21T06:15:08;13.97;;;8.80;;
6757;SDS011;3416;53.074;8.822;2023-11-21T06:17:38;9.50;;;8.02;;
6757;SDS011;3416;53.074;8.822;2023-11-21T06:20:06;12.10;;;9.48;;
6757;SDS011;3416;53.074;8.822;2023-11-21T06:22:36;15.68;;;8.25;;
6757;SDS011;3416;53.074;8.822;2023-11-21T06:25:09;12.05;;;8.93;;
6757;SDS011;3416;53.074;8.822;2023-11-21T06:27:38;12.00;;;8.93;;
6757;SDS011;3416;53.074;8.822;2023-11-21T06:30:07;16.00;;;7.85;;
6757;SDS011;3416;53.074;8.822;2023-11-21T06:32:35;12.00;;;8.38;;
6757;SDS011;3416;53.074;8.822;2023-11-21T06:35:02;11.45;;;10.20;;
6757;SDS011;3416;53.074;8.822;2023-11-21T06:37:29;12.75;;;9.43;;
6757;SDS011;3416;53.074;8.822;2023-11-21T06:39:57;11.27;;;8.90;;
6757;SDS011;3416;53.074;8.822;2023-11-21T06:42:26;12.68;;;10.95;;
6757;SDS011;3416;53.074;8.822;2023-11-21T06:44:54;13.25;;;10.27;;
6757;SDS011;3416;53.074;8.822;2023-11-21T06:47:22;14.90;;;10.80;;
6757;SDS011;3416;53.074;8.822;2023-11-21T06:49:50;12.02;;;10.60;;
6757;SDS011;3416;53.074;8.822;2023-11-21T06:52:17;12.27;;;9.32;;
6757;SDS011;3416;53.074;8.822;2023-11-21T06:54:45;12.32;;;9.90;;
6757;SDS011;3416;53.074;8.822;2023-11-21T06:57:14;11.57;;;9.25;;
6757;SDS011;3416;53.074;8.822;2023-11-21T06:59:43;11.60;;;9.88;;
6757;SDS011;3416;53.074;8.822;2023-11-21T07:02:14;14.55;;;10.60;;
6757;SDS011;3416;53.074;8.822;2023-11-21T07:04:43;12.35;;;10.27;;
6757;SDS011;3416;53.074;8.822;2023-11-21T07:07:12;14.27;;;11.88;;
6757;SDS011;3416;53.074;8.822;2023-11-21T07:09:45;15.43;;;9.18;;
6757;SDS011;3416;53.074;8.822;2023-11-21T07:12:15;13.23;;;10.18;;
6757;SDS011;3416;53.074;8.822;2023-11-21T07:14:44;11.80;;;9.63;;
6757;SDS011;3416;53.074;8.822;2023-11-21T07:17:11;10.93;;;9.55;;
6757;SDS011;3416;53.074;8.822;2023-11-21T07:19:39;10.95;;;8.85;;
6757;SDS011;3416;53.074;8.822;2023-11-21T07:22:09;16.27;;;11.43;;
6757;SDS011;3416;53.074;8.822;2023-11-21T07:24:36;17.25;;;11.05;;
6757;SDS011;3416;53.074;8.822;2023-11-21T07:27:04;13.18;;;9.77;;
6757;SDS011;3416;53.074;8.822;2023-11-21T07:29:31;13.38;;;11.02;;
6757;SDS011;3416;53.074;8.822;2023-11-21T07:32:10;15.65;;;11.73;;
6757;SDS011;3416;53.074;8.822;2023-11-21T07:34:38;13.93;;;10.68;;
6757;SDS011;3416;53.074;8.822;2023-11-21T07:37:05;12.88;;;10.93;;
6757;SDS011;3416;53.074;8.822;2023-11-21T07:39:32;13.50;;;10.68;;
6757;SDS011;3416;53.074;8.822;2023-11-21T07:41:59;15.88;;;11.90;;
6757;SDS011;3416;53.074;8.822;2023-11-21T07:44:26;12.77;;;10.63;;
6757;SDS011;3416;53.074;8.822;2023-11-21T07:46:53;14.68;;;11.55;;
6757;SDS011;3416;53.074;8.822;2023-11-21T07:49:26;12.75;;;10.60;;
6757;SDS011;3416;53.074;8.822;2023-11-21T07:51:55;18.25;;;12.55;;
6757;SDS011;3416;53.074;8.822;2023-11-21T07:54:27;12.23;;;10.23;;
6757;SDS011;3416;53.074;8.822;2023-11-21T07:56:54;15.32;;;10.77;;
6757;SDS011;3416;53.074;8.822;2023-11-21T07:59:21;14.27;;;11.40;;
6757;SDS011;3416;53.074;8.822;2023-11-21T08:01:48;25.77;;;12.32;;
6757;SDS011;3416;53.074;8.822;2023-11-21T08:04:15;16.08;;;11.70;;
6757;SDS011;3416;53.074;8.822;2023-11-21T08:06:45;13.65;;;10.27;;
6757;SDS011;3416;53.074;8.822;2023-11-21T08:09:12;11.20;;;10.02;;
6757;SDS011;3416;53.074;8.822;2023-11-21T08:11:40;14.40;;;11.25;;
6757;SDS011;3416;53.074;8.822;2023-11-21T08:14:08;12.38;;;9.98;;
6757;SDS011;3416;53.074;8.822;2023-11-21T08:16:35;15.63;;;11.63;;
6757;SDS011;3416;53.074;8.822;2023-11-21T08:19:01;14.23;;;11.52;;
6757;SDS011;3416;53.074;8.822;2023-11-21T08:21:28;13.75;;;9.35;;
6757;SDS011;3416;53.074;8.822;2023-11-21T08:23:57;13.15;;;9.80;;
6757;SDS011;3416;53.074;8.822;2023-11-21T08:26:26;12.50;;;10.63;;
6757;SDS011;3416;53.074;8.822;2023-11-21T08:28:56;11.60;;;10.02;;
6757;SDS011;3416;53.074;8.822;2023-11-21T08:31:26;11.88;;;9.82;;
6757;SDS011;3416;53.074;8.822;2023-11-21T08:33:53;12.50;;;10.13;;
6757;SDS011;3416;53.074;8.822;2023-11-21T08:36:21;15.27;;;11.65;;
6757;SDS011;3416;53.074;8.822;2023-11-21T08:38:49;11.85;;;9.30;;
6757;SDS011;3416;53.074;8.822;2023-11-21T08:41:18;13.90;;;9.55;;
6757;SDS011;3416;53.074;8.822;2023-11-21T08:43:47;12.48;;;9.85;;
6757;SDS011;3416;53.074;8.822;2023-11-21T08:46:14;18.90;;;12.05;;
6757;SDS011;3416;53.074;8.822;2023-11-21T08:48:44;16.50;;;11.63;;
6757;SDS011;3416;53.074;8.822;2023-11-21T08:51:14;15.38;;;11.02;;
6757;SDS011;3416;53.074;8.822;2023-11-21T08:53:43;13.57;;;10.88;;
6757;SDS011;3416;53.074;8.822;2023-11-21T08:56:14;10.93;;;9.80;;
6757;SDS011;3416;53.074;8.822;2023-11-21T08:58:56;14.68;;;11.18;;
6757;SDS011;3416;53.074;8.822;2023-11-21T09:01:29;11.65;;;10.45;;
6757;SDS011;3416;53.074;8.822;2023-11-21T09:04:03;12.52;;;9.52;;
6757;SDS011;3416;53.074;8.822;2023-11-21T09:06:33;13.85;;;11.05;;
6757;SDS011;3416;53.074;8.822;2023-11-21T09:09:00;14.30;;;10.02;;
6757;SDS011;3416;53.074;8.822;2023-11-21T09:11:31;12.45;;;9.55;;
6757;SDS011;3416;53.074;8.822;2023-11-21T09:13:59;11.98;;;9.43;;
6757;SDS011;3416;53.074;8.822;2023-11-21T09:16:27;12.32;;;10.52;;
6757;SDS011;3416;53.074;8.822;2023-11-21T09:18:56;15.00;;;10.63;;
6757;SDS011;3416;53.074;8.822;2023-11-21T09:21:24;11.77;;;9.47;;
6757;SDS011;3416;53.074;8.822;2023-11-21T09:23:51;14.73;;;10.25;;
6757;SDS011;3416;53.074;8.822;2023-11-21T09:26:19;13.80;;;10.90;;
6757;SDS011;3416;53.074;8.822;2023-11-21T09:28:47;14.00;;;9.80;;
6757;SDS011;3416;53.074;8.822;2023-11-21T09:31:14;13.02;;;9.70;;
6757;SDS011;3416;53.074;8.822;2023-11-21T09:33:42;12.05;;;9.35;;
6757;SDS011;3416;53.074;8.822;2023-11-21T09:36:12;12.15;;;10.50;;
6757;SDS011;3416;53.074;8.822;2023-11-21T09:38:39;15.73;;;10.68;;
6757;SDS011;3416;53.074;8.822;2023-11-21T09:41:09;11.73;;;10.23;;
6757;SDS011;3416;53.074;8.822;2023-11-21T09:43:56;12.55;;;8.98;;
6757;SDS011;3416;53.074;8.822;2023-11-21T09:46:25;14.23;;;9.82;;
6757;SDS011;3416;53.074;8.822;2023-11-21T09:48:55;11.60;;;9.70;;
6757;SDS011;3416;53.074;8.822;2023-11-21T09:51:26;12.30;;;9.48;;
6757;SDS011;3416;53.074;8.822;2023-11-21T09:53:58;11.88;;;9.40;;
6757;SDS011;3416;53.074;8.822;2023-11-21T09:56:27;12.18;;;10.68;;
6757;SDS011;3416;53.074;8.822;2023-11-21T09:58:56;14.33;;;9.97;;
6757;SDS011;3416;53.074;8.822;2023-11-21T10:01:23;12.50;;;9.50;;
6757;SDS011;3416;53.074;8.822;2023-11-21T10:03:52;11.18;;;9.05;;
6757;SDS011;3416;53.074;8.822;2023-11-21T10:06:19;12.75;;;9.23;;
6757;SDS011;3416;53.074;8.822;2023-11-21T10:08:47;10.65;;;9.07;;
6757;SDS011;3416;53.074;8.822;2023-11-21T10:11:15;12.10;;;9.07;;
6757;SDS011;3416;53.074;8.822;2023-11-21T10:13:46;12.30;;;9.50;;
6757;SDS011;3416;53.074;8.822;2023-11-21T10:16:17;15.10;;;9.35;;
6757;SDS011;3416;53.074;8.822;2023-11-21T10:18:47;13.68;;;10.27;;
6757;SDS011;3416;53.074;8.822;2023-11-21T10:21:17;11.38;;;9.63;;
6757;SDS011;3416;53.074;8.822;2023-11-21T10:23:44;11.13;;;9.93;;
6757;SDS011;3416;53.074;8.822;2023-11-21T10:26:12;11.98;;;9.10;;
6757;SDS011;3416;53.074;8.822;2023-11-21T10:28:41;10.45;;;8.75;;
6757;SDS011;3416;53.074;8.822;2023-11-21T10:31:08;13.57;;;10.18;;
6757;SDS011;3416;53.074;8.822;2023-11-21T10:33:36;12.23;;;9.88;;
6757;SDS011;3416;53.074;8.822;2023-11-21T10:36:04;11.70;;;9.43;;
6757;SDS011;3416;53.074;8.822;2023-11-21T10:38:33;13.20;;;9.60;;
6757;SDS011;3416;53.074;8.822;2023-11-21T10:41:11;11.57;;;9.65;;
6757;SDS011;3416;53.074;8.822;2023-11-21T10:43:40;14.23;;;9.18;;
6757;SDS011;3416;53.074;8.822;2023-11-21T10:46:09;11.38;;;9.50;;
6757;SDS011;3416;53.074;8.822;2023-11-21T10:48:39;10.55;;;9.30;;
6757;SDS011;3416;53.074;8.822;2023-11-21T10:51:13;13.50;;;9.43;;
6757;SDS011;3416;53.074;8.822;2023-11-21T10:53:42;14.05;;;8.95;;
6757;SDS011;3416;53.074;8.822;2023-11-21T10:56:10;11.30;;;8.40;;
6757;SDS011;3416;53.074;8.822;2023-11-21T10:58:42;10.80;;;8.10;;
6757;SDS011;3416;53.074;8.822;2023-11-21T11:01:09;9.95;;;8.65;;
6757;SDS011;3416;53.074;8.822;2023-11-21T11:03:40;12.93;;;8.83;;
6757;SDS011;3416;53.074;8.822;2023-11-21T11:06:09;13.05;;;9.50;;
6757;SDS011;3416;53.074;8.822;2023-11-21T11:08:37;16.27;;;9.90;;
6757;SDS011;3416;53.074;8.822;2023-11-21T11:11:04;11.30;;;9.90;;
6757;SDS011;3416;53.074;8.822;2023-11-21T11:13:31;12.70;;;9.13;;
6757;SDS011;3416;53.074;8.822;2023-11-21T11:15:59;13.07;;;10.60;;
6757;SDS011;3416;53.074;8.822;2023-11-21T11:18:27;10.13;;;9.02;;
6757;SDS011;3416;53.074;8.822;2023-11-21T11:20:57;21.35;;;8.48;;
6757;SDS011;3416;53.074;8.822;2023-11-21T11:23:37;10.25;;;8.43;;
6757;SDS011;3416;53.074;8.822;2023-11-21T11:26:15;9.23;;;7.18;;
6757;SDS011;3416;53.074;8.822;2023-11-21T11:28:52;12.57;;;7.85;;
6757;SDS011;3416;53.074;8.822;2023-11-21T11:31:31;11.57;;;9.25;;
6757;SDS011;3416;53.074;8.822;2023-11-21T11:34:07;9.40;;;8.40;;
6757;SDS011;3416;53.074;8.822;2023-11-21T11:36:54;11.30;;;8.35;;
6757;SDS011;3416;53.074;8.822;2023-11-21T11:39:27;18.45;;;9.00;;
6757;SDS011;3416;53.074;8.822;2023-11-21T11:41:55;10.30;;;8.43;;
6757;SDS011;3416;53.074;8.822;2023-11-21T11:47:21;9.85;;;8.38;;
6757;SDS011;3416;53.074;8.822;2023-11-21T11:50:05;25.13;;;8.82;;
6757;SDS011;3416;53.074;8.822;2023-11-21T11:52:39;13.40;;;8.80;;
6757;SDS011;3416;53.074;8.822;2023-11-21T11:55:06;11.82;;;8.27;;
6757;SDS011;3416;53.074;8.822;2023-11-21T11:57:36;9.98;;;7.70;;
6757;SDS011;3416;53.074;8.822;2023-11-21T12:00:07;13.90;;;7.75;;
6757;SDS011;3416;53.074;8.822;2023-11-21T12:02:41;9.00;;;7.90;;
6757;SDS011;3416;53.074;8.822;2023-11-21T12:05:09;9.95;;;8.93;;
6757;SDS011;3416;53.074;8.822;2023-11-21T12:07:43;7.85;;;7.10;;
6757;SDS011;3416;53.074;8.822;2023-11-21T12:10:12;7.50;;;6.80;;
6757;SDS011;3416;53.074;8.822;2023-11-21T12:12:43;9.23;;;6.82;;
6757;SDS011;3416;53.074;8.822;2023-11-21T12:15:11;12.80;;;7.75;;
6757;SDS011;3416;53.074;8.822;2023-11-21T12:17:39;8.13;;;6.65;;
6757;SDS011;3416;53.074;8.822;2023-11-21T12:20:08;10.23;;;6.43;;
6757;SDS011;3416;53.074;8.822;2023-11-21T12:22:41;13.68;;;8.02;;
6757;SDS011;3416;53.074;8.822;2023-11-21T12:25:12;10.52;;;7.07;;
6757;SDS011;3416;53.074;8.822;2023-11-21T12:27:41;7.40;;;6.05;;
6757;SDS011;3416;53.074;8.822;2023-11-21T12:30:10;9.40;;;6.45;;
6757;SDS011;3416;53.074;8.822;2023-11-21T12:32:40;7.32;;;5.72;;
6757;SDS011;3416;53.074;8.822;2023-11-21T12:35:09;10.75;;;5.97;;
6757;SDS011;3416;53.074;8.822;2023-11-21T12:37:37;7.93;;;5.90;;
6757;SDS011;3416;53.074;8.822;2023-11-21T12:40:07;6.72;;;5.18;;
6757;SDS011;3416;53.074;8.822;2023-11-21T12:42:37;11.43;;;5.93;;
6757;SDS011;3416;53.074;8.822;2023-11-21T12:45:06;12.10;;;6.22;;
6757;SDS011;3416;53.074;8.822;2023-11-21T12:47:45;7.97;;;6.35;;
6757;SDS011;3416;53.074;8.822;2023-11-21T12:50:13;6.45;;;5.20;;
6757;SDS011;3416;53.074;8.822;2023-11-21T12:52:41;6.35;;;5.28;;
6757;SDS011;3416;53.074;8.822;2023-11-21T12:55:14;5.95;;;5.45;;
6757;SDS011;3416;53.074;8.822;2023-11-21T12:57:45;6.32;;;5.45;;
6757;SDS011;3416;53.074;8.822;2023-11-21T13:00:12;5.78;;;5.03;;
6757;SDS011;3416;53.074;8.822;2023-11-21T13:02:52;6.60;;;4.80;;
6757;SDS011;3416;53.074;8.822;2023-11-21T13:05:28;5.70;;;5.18;;
6757;SDS011;3416;53.074;8.822;2023-11-21T13:07:56;6.10;;;4.90;;
6757;SDS011;3416;53.074;8.822;2023-11-21T13:10:29;5.78;;;4.43;;
6757;SDS011;3416;53.074;8.822;2023-11-21T13:12:57;7.32;;;4.13;;
6757;SDS011;3416;53.074;8.822;2023-11-21T13:15:25;6.43;;;4.38;;
6757;SDS011;3416;53.074;8.822;2023-11-21T13:17:53;8.63;;;5.60;;
6757;SDS011;3416;53.074;8.822;2023-11-21T13:20:21;8.95;;;4.72;;
6757;SDS011;3416;53.074;8.822;2023-11-21T13:22:49;6.28;;;4.10;;
6757;SDS011;3416;53.074;8.822;2023-11-21T13:25:19;6.60;;;4.75;;
6757;SDS011;3416;53.074;8.822;2023-11-21T13:27:48;4.38;;;3.90;;
6757;SDS011;3416;53.074;8.822;2023-11-21T13:30:15;5.28;;;3.55;;
6757;SDS011;3416;53.074;8.822;2023-11-21T13:32:42;4.47;;;4.03;;
6757;SDS011;3416;53.074;8.822;2023-11-21T13:35:11;13.07;;;3.40;;
6757;SDS011;3416;53.074;8.822;2023-11-21T13:37:46;4.03;;;3.70;;
6757;SDS011;3416;53.074;8.822;2023-11-21T13:40:16;3.80;;;3.40;;
6757;SDS011;3416;53.074;8.822;2023-11-21T13:42:49;4.80;;;3.85;;
6757;SDS011;3416;53.074;8.822;2023-11-21T13:45:18;8.00;;;4.35;;
6757;SDS011;3416;53.074;8.822;2023-11-21T13:47:48;9.07;;;4.18;;
6757;SDS011;3416;53.074;8.822;2023-11-21T13:50:17;5.63;;;3.65;;
6757;SDS011;3416;53.074;8.822;2023-11-21T13:52:48;8.65;;;4.80;;
6757;SDS011;3416;53.074;8.822;2023-11-21T13:55:16;4.65;;;3.22;;
6757;SDS011;3416;53.074;8.822;2023-11-21T13:57:43;5.57;;;3.75;;
6757;SDS011;3416;53.074;8.822;2023-11-21T14:00:16;5.85;;;2.72;;
6757;SDS011;3416;53.074;8.822;2023-11-21T14:02:57;3.47;;;2.90;;
6757;SDS011;3416;53.074;8.822;2023-11-21T14:05:26;6.45;;;3.70;;
6757;SDS011;3416;53.074;8.822;2023-11-21T14:07:55;9.90;;;3.63;;
6757;SDS011;3416;53.074;8.822;2023-11-21T14:10:27;4.80;;;3.95;;
6757;SDS011;3416;53.074;8.822;2023-11-21T14:13:02;6.05;;;3.60;;
6757;SDS011;3416;53.074;8.822;2023-11-21T14:15:32;3.45;;;3.15;;
6757;SDS011;3416;53.074;8.822;2023-11-21T14:18:03;3.80;;;3.38;;
6757;SDS011;3416;53.074;8.822;2023-11-21T14:20:33;3.70;;;3.03;;
6757;SDS011;3416;53.074;8.822;2023-11-21T14:23:01;3.50;;;3.15;;
6757;SDS011;3416;53.074;8.822;2023-11-21T14:25:29;7.07;;;3.70;;
6757;SDS011;3416;53.074;8.822;2023-11-21T14:27:57;5.63;;;3.40;;
6757;SDS011;3416;53.074;8.822;2023-11-21T14:30:23;5.70;;;3.35;;
6757;SDS011;3416;53.074;8.822;2023-11-21T14:32:53;4.20;;;3.70;;
6757;SDS011;3416;53.074;8.822;2023-11-21T14:35:20;5.47;;;3.38;;
6757;SDS011;3416;53.074;8.822;2023-11-21T14:37:47;4.85;;;3.00;;
6757;SDS011;3416;53.074;8.822;2023-11-21T14:40:14;4.85;;;3.30;;
6757;SDS011;3416;53.074;8.822;2023-11-21T14:42:42;6.05;;;2.83;;
6757;SDS011;3416;53.074;8.822;2023-11-21T14:45:12;3.53;;;2.63;;
6757;SDS011;3416;53.074;8.822;2023-11-21T14:47:44;3.30;;;3.00;;
6757;SDS011;3416;53.074;8.822;2023-11-21T14:50:18;3.83;;;3.30;;
6757;SDS011;3416;53.074;8.822;2023-11-21T14:53:02;3.90;;;3.05;;
6757;SDS011;3416;53.074;8.822;2023-11-21T14:55:31;6.18;;;4.43;;
6757;SDS011;3416;53.074;8.822;2023-11-21T14:58:04;4.85;;;2.92;;
6757;SDS011;3416;53.074;8.822;2023-11-21T15:00:31;7.18;;;3.63;;
6757;SDS011;3416;53.074;8.822;2023-11-21T15:03:09;6.90;;;4.03;;
6757;SDS011;3416;53.074;8.822;2023-11-21T15:05:50;4.55;;;3.60;;
6757;SDS011;3416;53.074;8.822;2023-11-21T15:08:16;3.83;;;3.28;;
6757;SDS011;3416;53.074;8.822;2023-11-21T15:10:51;2.50;;;2.08;;